Weather History for Sulphur, LA

Change the Weather History Date:

Friday, October 19, 2012

  Actual Average (KLCH) Record (KLCH)
Temperature  
Mean Temperature 65 °F 69 °F  
Max Temperature 82 °F 80 °F 90 °F (1941)
Min Temperature 48 °F 58 °F 37 °F (1948)
Degree Days  
Heating Degree Days 0 1  
Month to date heating degree days 10  
Since 1 July heating degree days 11  
Cooling Degree Days 0 5  
Month to date cooling degree days 141  
Year to date cooling degree days 2681  
Growing Degree Days 15 (Base 50)    
Moisture  
Dew Point 47 °F    
Average Humidity 62    
Maximum Humidity 100    
Minimum Humidity 20    
Precipitation  
Precipitation 0.00 in 0.19 in 1.46 in (2006)
Month to date precipitation 2.81  
Year to date precipitation 46.29  
Snow  
Snow 0.00 in 0.00 in 0.00 in ()
Month to date snowfall 0.0  
Since 1 July snowfall 0.0  
Since 1 September snowfall 0.0  
Snow Depth -    
Sea Level Pressure  
Sea Level Pressure 29.96 in    
Wind  
Wind Speed 3 mph (NW)    
Max Wind Speed 10 mph    
Max Gust Speed 21 mph    
Visibility 10 miles    
Events      
T = Trace of Precipitation, MM = Missing Value Source: NWS Daily Summary

Daily Weather History Graph

Daily Weather History Graph

Search for Another Location

Airport:

Trip Planner

Search our weather history database for the weather conditions in past years. The results will help you decide how hot, cold, wet, or windy it might be!

Date:

Astronomy

Oct. 19, 2012 Rise Set
Actual Time 7:18 AM CDT 6:37 PM CDT
Civil Twilight 6:54 AM CDT 7:02 PM CDT
Nautical Twilight 6:26 AM CDT 7:29 PM CDT
Astronomical Twilight 5:58 AM CDT 7:57 PM CDT
Moon 11:47 AM CDT (10/19) 10:30 PM CDT (10/19)
Length of Visible Light 12h 07m
Length of Day
11h 19m
Waxing Crescent, 24% of the Moon is Illuminated
Oct 19
Waxing Crescent
Oct 21
First Quarter
Oct 29
Full
Nov 6
Last Quarter
Nov 13
New

Hourly Weather History & Observations

Time (CDT) Temp. Dew Point Humidity Pressure Visibility Wind Dir Wind Speed Gust Speed Precip Events Conditions
1:15 AM 55.4 °F 51.8 °F 88% 29.96 in 10.0 mi North 4.6 mph - N/A   Clear
1:35 AM 55.4 °F 51.8 °F 88% 29.96 in 10.0 mi NNW 3.5 mph - N/A   Clear
1:55 AM 55.4 °F 51.8 °F 88% 29.95 in 10.0 mi North 3.5 mph - N/A   Clear
2:15 AM 55.4 °F 51.8 °F 88% 29.95 in 10.0 mi North 3.5 mph - N/A   Clear
2:35 AM 53.6 °F 51.8 °F 94% 29.95 in 10.0 mi NNW 4.6 mph - N/A   Clear
2:55 AM 53.6 °F 50.0 °F 88% 29.95 in 10.0 mi NNW 4.6 mph - N/A   Clear
3:15 AM 53.6 °F 50.0 °F 88% 29.95 in 10.0 mi NNW 4.6 mph - N/A   Clear
3:35 AM 55.4 °F 50.0 °F 82% 29.95 in 10.0 mi Calm Calm - N/A   Clear
3:55 AM 55.4 °F 50.0 °F 82% 29.95 in 10.0 mi North 3.5 mph - N/A   Clear
4:15 AM 53.6 °F 50.0 °F 88% 29.95 in 10.0 mi Calm Calm - N/A   Clear
4:35 AM 51.8 °F 50.0 °F 94% 29.95 in 10.0 mi Calm Calm - N/A   Clear
4:55 AM 53.6 °F 50.0 °F 88% 29.96 in 10.0 mi Calm Calm - N/A   Clear
5:15 AM 50.0 °F 48.2 °F 94% 29.96 in 10.0 mi NNW 3.5 mph - N/A   Clear
5:35 AM 50.0 °F 48.2 °F 94% 29.97 in 10.0 mi Calm Calm - N/A   Clear
5:55 AM 51.8 °F 50.0 °F 94% 29.97 in 10.0 mi Calm Calm - N/A   Clear
6:15 AM 51.8 °F 50.0 °F 94% 29.97 in 7.0 mi Calm Calm - N/A   Clear
6:35 AM 51.8 °F 50.0 °F 94% 29.97 in 10.0 mi Calm Calm - N/A   Clear
6:55 AM 50.0 °F 48.2 °F 94% 29.97 in 10.0 mi West 4.6 mph - N/A   Clear
7:15 AM 48.2 °F 46.4 °F 93% 29.98 in 10.0 mi Calm Calm - N/A   Clear
7:35 AM 50.0 °F 46.4 °F 87% 29.97 in 10.0 mi Calm Calm - N/A   Clear
7:55 AM 50.0 °F 50.0 °F 100% 29.98 in 10.0 mi Calm Calm - N/A   Clear
8:15 AM 53.6 °F 51.8 °F 94% 29.99 in 10.0 mi Calm Calm - N/A   Clear
8:35 AM 55.4 °F 51.8 °F 88% 29.99 in 10.0 mi Calm Calm - N/A   Clear
8:55 AM 59.0 °F 53.6 °F 82% 30.00 in 10.0 mi Calm Calm - N/A   Clear
9:15 AM 62.6 °F 53.6 °F 72% 30.01 in 10.0 mi Calm Calm - N/A   Clear
9:35 AM 66.2 °F 51.8 °F 60% 30.01 in 10.0 mi NW 3.5 mph - N/A   Clear
9:55 AM 69.8 °F 46.4 °F 43% 30.01 in 10.0 mi NNW 3.5 mph - N/A   Clear
10:15 AM 71.6 °F 44.6 °F 38% 30.02 in 10.0 mi WNW 3.5 mph - N/A   Clear
10:35 AM 73.4 °F 42.8 °F 33% 30.01 in 10.0 mi WNW 4.6 mph - N/A   Clear
10:55 AM 73.4 °F 41.0 °F 31% 30.01 in 10.0 mi NW 3.5 mph - N/A   Clear
11:15 AM 77.0 °F 41.0 °F 28% 30.01 in 10.0 mi NW 5.8 mph - N/A   Clear
11:35 AM 77.0 °F 42.8 °F 29% 30.01 in 10.0 mi NNW 4.6 mph - N/A   Clear
11:55 AM 78.8 °F 41.0 °F 26% 30.01 in 10.0 mi NNW 10.4 mph - N/A   Clear
12:15 PM 78.8 °F 41.0 °F 26% 30.01 in 10.0 mi NW 9.2 mph - N/A   Clear
12:35 PM 78.8 °F 39.2 °F 24% 30.00 in 10.0 mi NW 9.2 mph - N/A   Clear
12:55 PM 80.6 °F 39.2 °F 23% 29.98 in 10.0 mi WNW 6.9 mph 20.7 mph N/A   Clear
1:15 PM 80.6 °F 37.4 °F 21% 29.98 in 10.0 mi WNW 6.9 mph - N/A   Clear
1:35 PM 80.6 °F 37.4 °F 21% 29.97 in 10.0 mi West 6.9 mph - N/A   Clear
1:55 PM 80.6 °F 37.4 °F 21% 29.96 in 10.0 mi WNW 10.4 mph - N/A   Clear
2:15 PM 80.6 °F 37.4 °F 21% 29.95 in 10.0 mi WNW 5.8 mph - N/A   Clear
2:35 PM 80.6 °F 37.4 °F 21% 29.94 in 10.0 mi West 5.8 mph - N/A   Clear
2:55 PM 80.6 °F 37.4 °F 21% 29.94 in 10.0 mi NNW 6.9 mph 17.3 mph N/A   Clear
3:15 PM 80.6 °F 35.6 °F 20% 29.93 in 10.0 mi WNW 5.8 mph - N/A   Clear
3:35 PM 82.4 °F 37.4 °F 20% 29.93 in 10.0 mi NW 9.2 mph - N/A   Clear
3:55 PM 80.6 °F 37.4 °F 21% 29.93 in 10.0 mi West 8.1 mph - N/A   Clear
4:15 PM 80.6 °F 39.2 °F 23% 29.93 in 10.0 mi West 6.9 mph - N/A   Clear
4:35 PM 80.6 °F 37.4 °F 21% 29.93 in 10.0 mi WNW 5.8 mph - N/A   Clear
4:55 PM 80.6 °F 37.4 °F 21% 29.92 in 10.0 mi WNW 8.1 mph - N/A   Clear
5:15 PM 80.6 °F 39.2 °F 23% 29.92 in 10.0 mi West 5.8 mph - N/A   Clear
5:35 PM 78.8 °F 42.8 °F 28% 29.92 in 10.0 mi WNW 4.6 mph - N/A   Clear
5:55 PM 77.0 °F 44.6 °F 32% 29.91 in 10.0 mi West 3.5 mph - N/A   Clear
6:15 PM 75.2 °F 44.6 °F 34% 29.91 in 10.0 mi West 3.5 mph - N/A   Clear
6:35 PM 71.6 °F 50.0 °F 46% 29.91 in 10.0 mi Calm Calm - N/A   Clear
6:55 PM 66.2 °F 50.0 °F 56% 29.92 in 10.0 mi Calm Calm - N/A   Clear
7:15 PM 64.4 °F 51.8 °F 64% 29.93 in 10.0 mi Calm Calm - N/A   Clear
7:35 PM 62.6 °F 50.0 °F 63% 29.93 in 10.0 mi Calm Calm - N/A   Clear
7:55 PM 62.6 °F 51.8 °F 68% 29.94 in 10.0 mi Calm Calm - N/A   Clear
8:15 PM 60.8 °F 51.8 °F 72% 29.94 in 10.0 mi Calm Calm - N/A   Clear
8:35 PM 60.8 °F 51.8 °F 72% 29.94 in 10.0 mi Calm Calm - N/A   Clear
8:55 PM 60.8 °F 51.8 °F 72% 29.94 in 10.0 mi Calm Calm - N/A   Clear
9:15 PM 59.0 °F 53.6 °F 82% 29.94 in 10.0 mi Calm Calm - N/A   Clear
9:35 PM 59.0 °F 53.6 °F 82% 29.94 in 10.0 mi Calm Calm - N/A   Clear
9:55 PM 55.4 °F 53.6 °F 94% 29.94 in 10.0 mi Calm Calm - N/A   Clear
10:15 PM 55.4 °F 53.6 °F 94% 29.94 in 10.0 mi Calm Calm - N/A   Clear
10:35 PM 55.4 °F 53.6 °F 94% 29.95 in 10.0 mi Calm Calm - N/A   Clear
10:55 PM 55.4 °F 53.6 °F 94% 29.95 in 10.0 mi Calm Calm - N/A   Clear
11:15 PM 55.4 °F 53.6 °F 94% 29.95 in 10.0 mi Calm Calm - N/A   Clear
11:35 PM 55.4 °F 53.6 °F 94% 29.95 in 10.0 mi Calm Calm - N/A   Clear
11:55 PM 53.6 °F 51.8 °F 94% 29.95 in 10.0 mi Calm Calm - N/A   Clear